createdAt,value
2023-04-08T00:00:11.257Z,27.90
2023-04-08T00:02:41.339Z,27.88
2023-04-08T00:05:12.303Z,27.87
2023-04-08T00:07:44.933Z,27.85
2023-04-08T00:10:15.115Z,27.84
2023-04-08T00:12:45.176Z,27.82
2023-04-08T00:15:15.301Z,27.82
2023-04-08T00:17:45.919Z,27.80
2023-04-08T00:20:16.916Z,27.78
2023-04-08T00:22:51.189Z,27.77
2023-04-08T00:25:24.088Z,27.75
2023-04-08T00:27:56.028Z,27.74
2023-04-08T00:30:27.751Z,27.72
2023-04-08T00:32:58.796Z,27.72
2023-04-08T00:35:29.511Z,27.69
2023-04-08T00:38:02.014Z,27.68
2023-04-08T00:40:32.126Z,27.67
2023-04-08T00:43:02.534Z,27.66
2023-04-08T00:45:33.050Z,27.64
2023-04-08T00:48:04.862Z,27.62
2023-04-08T00:50:36.301Z,27.60
2023-04-08T00:53:08.721Z,27.59
2023-04-08T00:55:39.305Z,27.56
2023-04-08T00:58:09.844Z,27.54
2023-04-08T01:00:51.788Z,27.54
2023-04-08T01:03:29.872Z,27.53
2023-04-08T01:06:12.353Z,27.52
2023-04-08T01:08:47.130Z,27.50
2023-04-08T01:11:18.476Z,27.49
2023-04-08T01:13:51.115Z,27.49
2023-04-08T01:16:23.425Z,27.47
2023-04-08T01:18:55.347Z,27.46
2023-04-08T01:21:29.307Z,27.46
2023-04-08T01:24:22.637Z,27.42
2023-04-08T01:26:55.190Z,27.39
2023-04-08T01:29:26.808Z,27.38
2023-04-08T01:31:58.750Z,27.35
2023-04-08T01:34:31.457Z,27.33
2023-04-08T01:37:02.900Z,27.28
2023-04-08T01:39:34.771Z,27.25
2023-04-08T01:42:07.910Z,27.23
2023-04-08T01:44:40.221Z,27.19
2023-04-08T01:47:12.106Z,27.16
2023-04-08T01:49:44.357Z,27.12
2023-04-08T01:52:16.853Z,27.08
2023-04-08T01:54:46.985Z,27.05
2023-04-08T01:57:30.185Z,27.01
2023-04-08T02:00:08.949Z,26.98
2023-04-08T02:02:41.161Z,26.96
2023-04-08T02:05:12.444Z,26.93
2023-04-08T02:07:43.116Z,26.92
2023-04-08T02:10:14.440Z,26.91
2023-04-08T02:12:46.811Z,26.90
2023-04-08T02:15:17.821Z,26.90
2023-04-08T02:17:54.180Z,26.89
2023-04-08T02:20:33.622Z,26.89
2023-04-08T02:23:13.722Z,26.89
2023-04-08T02:25:47.979Z,26.89
2023-04-08T02:28:23.639Z,26.88
2023-04-08T02:30:57.193Z,26.87
2023-04-08T02:33:28.138Z,26.87
2023-04-08T02:36:00.275Z,26.88
2023-04-08T02:38:31.126Z,26.88
2023-04-08T02:41:01.998Z,26.88
2023-04-08T02:43:34.266Z,26.88
2023-04-08T02:46:05.596Z,26.88
2023-04-08T02:48:36.344Z,26.88
2023-04-08T02:51:07.146Z,26.87
2023-04-08T02:53:37.635Z,26.87
2023-04-08T02:56:09.445Z,26.87
2023-04-08T02:58:41.550Z,26.85
2023-04-08T03:01:12.259Z,26.85
2023-04-08T03:03:42.244Z,26.84
2023-04-08T03:06:12.921Z,26.83
2023-04-08T03:08:43.466Z,26.82
2023-04-08T03:11:13.703Z,26.81
2023-04-08T03:13:47.145Z,26.81
2023-04-08T03:16:17.743Z,26.78
2023-04-08T03:18:47.511Z,26.76
2023-04-08T03:21:35.227Z,26.75
2023-04-08T03:24:05.929Z,26.73
2023-04-08T03:26:36.122Z,26.71
2023-04-08T03:29:10.408Z,26.69
2023-04-08T03:31:41.254Z,26.68
2023-04-08T03:34:11.439Z,26.66
2023-04-08T03:36:41.841Z,26.64
2023-04-08T03:39:12.501Z,26.62
2023-04-08T03:41:42.392Z,26.62
2023-04-08T03:44:14.006Z,26.60
2023-04-08T03:46:44.525Z,26.58
2023-04-08T03:49:14.763Z,26.56
2023-04-08T03:51:44.901Z,26.56
2023-04-08T03:54:15.564Z,26.55
2023-04-08T03:56:46.131Z,26.53
2023-04-08T03:59:18.656Z,26.53
2023-04-08T04:01:49.113Z,26.52
2023-04-08T04:04:19.613Z,26.49
2023-04-08T04:06:50.241Z,26.48
2023-04-08T04:09:34.119Z,26.47
2023-04-08T04:12:03.949Z,26.45
2023-04-08T04:14:36.322Z,26.45
2023-04-08T04:17:06.470Z,26.45
2023-04-08T04:19:36.403Z,26.45
2023-04-08T04:22:06.781Z,26.44
2023-04-08T04:24:37.415Z,26.45
2023-04-08T04:27:08.040Z,26.45
2023-04-08T04:29:39.978Z,26.46
2023-04-08T04:32:10.590Z,26.44
2023-04-08T04:34:41.016Z,26.45
2023-04-08T04:37:11.536Z,26.45
2023-04-08T04:39:42.030Z,26.46
2023-04-08T04:42:12.807Z,26.46
2023-04-08T04:44:45.329Z,26.47
2023-04-08T04:47:16.494Z,26.48
2023-04-08T04:49:47.464Z,26.49
2023-04-08T04:52:17.458Z,26.50
2023-04-08T04:54:47.921Z,26.49
2023-04-08T04:57:18.694Z,26.49
2023-04-08T04:59:51.864Z,26.49
2023-04-08T05:02:22.541Z,26.48
2023-04-08T05:04:53.995Z,26.49
2023-04-08T05:07:24.023Z,26.50
2023-04-08T05:09:54.986Z,26.50
2023-04-08T05:12:25.479Z,26.51
2023-04-08T05:14:57.067Z,26.53
2023-04-08T05:17:27.161Z,26.56
2023-04-08T05:19:57.936Z,26.58
2023-04-08T05:22:28.044Z,26.60
2023-04-08T05:24:58.526Z,26.62
2023-04-08T05:27:28.535Z,26.64
2023-04-08T05:30:01.421Z,26.68
2023-04-08T05:32:33.193Z,26.69
2023-04-08T05:35:06.655Z,26.72
2023-04-08T05:37:36.476Z,26.74
2023-04-08T05:40:08.003Z,26.77
2023-04-08T05:42:38.848Z,26.80
2023-04-08T05:45:13.669Z,26.84
2023-04-08T05:47:44.219Z,26.86
2023-04-08T05:50:15.120Z,26.90
2023-04-08T05:52:49.002Z,26.92
2023-04-08T05:55:19.540Z,26.93
2023-04-08T05:57:50.031Z,26.97
2023-04-08T06:00:23.410Z,27.00
2023-04-08T06:02:54.354Z,27.01
2023-04-08T06:05:24.453Z,27.02
2023-04-08T06:07:54.977Z,27.05
2023-04-08T06:10:25.672Z,27.08
2023-04-08T06:12:55.745Z,27.11
2023-04-08T06:15:29.643Z,27.14
2023-04-08T06:17:59.634Z,27.16
2023-04-08T06:20:30.538Z,27.19
2023-04-08T06:23:00.629Z,27.22
2023-04-08T06:25:31.204Z,27.24
2023-04-08T06:28:01.229Z,27.27
2023-04-08T06:30:33.280Z,27.30
2023-04-08T06:33:04.242Z,27.31
2023-04-08T06:35:34.249Z,27.34
2023-04-08T06:38:04.987Z,27.36
2023-04-08T06:40:35.944Z,27.37
2023-04-08T06:43:07.486Z,27.40
2023-04-08T06:45:39.521Z,27.44
2023-04-08T06:48:10.291Z,27.46
2023-04-08T06:50:40.824Z,27.49
2023-04-08T06:53:11.244Z,27.52
2023-04-08T06:55:41.739Z,27.55
2023-04-08T06:58:12.264Z,27.59
2023-04-08T07:00:45.735Z,27.62
2023-04-08T07:03:15.801Z,27.64
2023-04-08T07:05:46.481Z,27.67
2023-04-08T07:08:17.212Z,27.70
2023-04-08T07:10:47.665Z,27.72
2023-04-08T07:13:17.989Z,27.75
2023-04-08T07:15:50.100Z,27.79
2023-04-08T07:18:21.906Z,27.80
2023-04-08T07:20:55.466Z,27.82
2023-04-08T07:23:26.288Z,27.84
2023-04-08T07:25:56.837Z,27.85
2023-04-08T07:28:27.851Z,27.87
2023-04-08T07:31:00.238Z,27.87
2023-04-08T07:33:31.036Z,27.88
2023-04-08T07:36:00.992Z,27.88
2023-04-08T07:38:31.548Z,27.90
2023-04-08T07:41:02.215Z,27.91
2023-04-08T07:43:35.075Z,27.94
2023-04-08T07:46:06.969Z,27.94
2023-04-08T07:48:37.816Z,27.95
2023-04-08T07:51:11.078Z,27.97
2023-04-08T07:53:43.252Z,27.99
2023-04-08T07:56:18.728Z,28.00
2023-04-08T07:58:53.307Z,28.02
2023-04-08T08:01:28.371Z,28.04
2023-04-08T08:03:59.055Z,28.06
2023-04-08T08:06:29.651Z,28.09
2023-04-08T08:09:01.110Z,28.14
2023-04-08T08:11:31.617Z,28.18
2023-04-08T08:14:02.144Z,28.23
2023-04-08T08:16:36.862Z,28.29
2023-04-08T08:19:09.088Z,28.33
2023-04-08T08:21:40.264Z,28.40
2023-04-08T08:24:10.811Z,28.45
2023-04-08T08:26:41.481Z,28.52
2023-04-08T08:29:12.110Z,28.57
2023-04-08T08:31:44.791Z,28.62
2023-04-08T08:34:14.758Z,28.68
2023-04-08T08:36:45.225Z,28.76
2023-04-08T08:39:15.274Z,28.83
2023-04-08T08:41:47.080Z,28.90
2023-04-08T08:44:17.632Z,28.94
2023-04-08T08:46:51.732Z,29.01
2023-04-08T08:49:22.060Z,29.05
2023-04-08T08:51:54.349Z,29.10
2023-04-08T08:54:24.963Z,29.14
2023-04-08T08:56:55.855Z,29.19
2023-04-08T08:59:25.989Z,29.24
2023-04-08T09:01:58.554Z,29.26
2023-04-08T09:04:28.832Z,29.30
2023-04-08T09:07:14.368Z,29.34
2023-04-08T09:09:53.121Z,29.38
2023-04-08T09:12:23.240Z,29.43
2023-04-08T09:14:54.463Z,29.47
2023-04-08T09:17:38.252Z,29.52
2023-04-08T09:20:12.414Z,29.55
2023-04-08T09:23:01.811Z,29.59
2023-04-08T09:25:34.123Z,29.63
2023-04-08T09:28:04.809Z,29.65
2023-04-08T09:30:36.051Z,29.70
2023-04-08T09:33:08.583Z,29.75
2023-04-08T09:35:39.132Z,29.78
2023-04-08T09:38:09.643Z,29.81
2023-04-08T09:40:41.608Z,29.83
2023-04-08T09:43:15.562Z,29.88
2023-04-08T09:45:49.346Z,29.90
2023-04-08T09:48:29.926Z,29.92
2023-04-08T09:51:02.678Z,29.94
2023-04-08T09:53:41.374Z,29.95
2023-04-08T09:56:16.703Z,29.96
2023-04-08T09:58:56.741Z,29.98
2023-04-08T10:01:41.141Z,29.98
2023-04-08T10:04:21.224Z,30.00
2023-04-08T10:07:00.362Z,30.01
2023-04-08T10:09:33.121Z,30.03
2023-04-08T10:12:06.941Z,30.04
2023-04-08T10:14:37.558Z,30.06
2023-04-08T10:17:30.534Z,30.09
2023-04-08T10:20:03.136Z,30.08
2023-04-08T10:25:49.841Z,30.13
2023-04-08T10:28:30.304Z,30.15
2023-04-08T10:31:01.206Z,30.17
2023-04-08T10:33:40.074Z,30.20
2023-04-08T10:36:15.780Z,30.23
2023-04-08T10:38:47.744Z,30.26
2023-04-08T10:41:27.911Z,30.28
2023-04-08T10:43:57.897Z,30.30
2023-04-08T10:46:31.385Z,30.32
2023-04-08T10:49:04.741Z,30.33
2023-04-08T10:51:36.130Z,30.35
2023-04-08T10:54:10.991Z,30.36
2023-04-08T10:56:48.164Z,30.36
2023-04-08T10:59:20.638Z,30.37
2023-04-08T11:01:50.731Z,30.39
2023-04-08T11:04:23.954Z,30.40
2023-04-08T11:06:55.002Z,30.41
2023-04-08T11:09:25.156Z,30.43
2023-04-08T11:11:57.755Z,30.43
2023-04-08T11:14:29.153Z,30.43
2023-04-08T11:17:01.912Z,30.44
2023-04-08T11:19:32.874Z,30.45
2023-04-08T11:22:02.965Z,30.46
2023-04-08T11:24:33.785Z,30.47
2023-04-08T11:27:07.164Z,30.49
2023-04-08T11:29:38.765Z,30.51
2023-04-08T11:32:09.585Z,30.54
2023-04-08T11:34:43.663Z,30.57
2023-04-08T11:37:14.259Z,30.56
2023-04-08T11:39:47.153Z,30.60
2023-04-08T11:42:33.218Z,30.62
2023-04-08T11:45:04.308Z,30.62
2023-04-08T11:47:35.847Z,30.64
2023-04-08T11:50:06.836Z,30.64
2023-04-08T11:52:49.107Z,30.66
2023-04-08T11:55:27.426Z,30.66
2023-04-08T11:58:06.685Z,30.65
2023-04-08T12:00:38.103Z,30.63
2023-04-08T12:03:09.271Z,30.62
2023-04-08T12:05:39.446Z,30.62
2023-04-08T12:08:10.230Z,30.62
2023-04-08T12:10:40.733Z,30.62
2023-04-08T12:13:12.683Z,30.63
2023-04-08T12:15:43.273Z,30.64
2023-04-08T12:18:13.304Z,30.65
2023-04-08T12:20:43.178Z,30.65
2023-04-08T12:23:13.229Z,30.65
2023-04-08T12:25:43.868Z,30.65
2023-04-08T12:28:16.104Z,30.65
2023-04-08T12:30:47.317Z,30.63
2023-04-08T12:33:17.774Z,30.63
2023-04-08T12:35:48.988Z,30.61
2023-04-08T12:38:19.473Z,30.60
2023-04-08T12:40:50.277Z,30.58
2023-04-08T12:43:24.009Z,30.57
2023-04-08T12:45:54.818Z,30.56
2023-04-08T12:48:24.832Z,30.55
2023-04-08T12:50:55.359Z,30.55
2023-04-08T12:53:25.796Z,30.53
2023-04-08T12:55:58.026Z,30.52
2023-04-08T12:58:29.621Z,30.52
2023-04-08T13:01:00.212Z,30.51
2023-04-08T13:03:32.281Z,30.50
2023-04-08T13:06:02.850Z,30.49
2023-04-08T13:08:33.267Z,30.48
2023-04-08T13:11:03.817Z,30.47
2023-04-08T13:13:36.974Z,30.46
2023-04-08T13:16:07.367Z,30.45
2023-04-08T13:18:38.461Z,30.44
2023-04-08T13:21:09.197Z,30.43
2023-04-08T13:23:39.309Z,30.42
2023-04-08T13:26:09.959Z,30.41
2023-04-08T13:28:55.886Z,30.40
2023-04-08T13:31:27.900Z,30.38
2023-04-08T13:33:58.567Z,30.38
2023-04-08T13:36:29.441Z,30.38
2023-04-08T13:39:00.434Z,30.37
2023-04-08T13:41:31.111Z,30.35
2023-04-08T13:44:03.484Z,30.34
2023-04-08T13:46:33.671Z,30.32
2023-04-08T13:49:03.890Z,30.29
2023-04-08T13:51:34.333Z,30.28
2023-04-08T13:54:04.381Z,30.28
2023-04-08T13:56:34.914Z,30.25
2023-04-08T13:59:07.729Z,30.24
2023-04-08T14:01:38.640Z,30.23
2023-04-08T14:04:09.210Z,30.22
2023-04-08T14:06:39.754Z,30.21
2023-04-08T14:09:11.080Z,30.20
2023-04-08T14:11:41.713Z,30.19
2023-04-08T14:14:13.896Z,30.20
2023-04-08T14:16:44.366Z,30.18
2023-04-08T14:19:14.341Z,30.16
2023-04-08T14:21:44.841Z,30.18
2023-04-08T14:24:15.420Z,30.16
2023-04-08T14:26:46.075Z,30.16
2023-04-08T14:29:18.646Z,30.16
2023-04-08T14:31:48.616Z,30.14
2023-04-08T14:34:18.852Z,30.14
2023-04-08T14:36:49.235Z,30.12
2023-04-08T14:39:18.940Z,30.11
2023-04-08T14:41:49.058Z,30.11
2023-04-08T14:44:21.144Z,30.09
2023-04-08T14:46:52.212Z,30.07
2023-04-08T14:49:22.144Z,30.07
2023-04-08T14:51:53.353Z,30.05
2023-04-08T14:54:24.092Z,30.04
2023-04-08T14:56:54.739Z,30.01
2023-04-08T14:59:26.938Z,30.00
2023-04-08T15:01:57.281Z,29.98
2023-04-08T15:04:27.833Z,29.95
2023-04-08T15:06:58.269Z,29.93
2023-04-08T15:09:29.816Z,29.92
2023-04-08T15:12:00.512Z,29.90
2023-04-08T15:14:33.027Z,29.88
2023-04-08T15:17:06.862Z,29.86
2023-04-08T15:19:37.515Z,29.84
2023-04-08T15:22:08.045Z,29.83
2023-04-08T15:24:38.659Z,29.81
2023-04-08T15:27:09.321Z,29.78
2023-04-08T15:29:40.991Z,29.78
2023-04-08T15:32:10.941Z,29.75
2023-04-08T15:34:40.968Z,29.74
2023-04-08T15:37:11.388Z,29.72
2023-04-08T15:39:42.028Z,29.71
2023-04-08T15:42:12.303Z,29.69
2023-04-08T15:44:44.203Z,29.67
2023-04-08T15:47:14.839Z,29.65
2023-04-08T15:49:44.687Z,29.63
2023-04-08T15:52:15.117Z,29.62
2023-04-08T15:54:45.541Z,29.59
2023-04-08T15:57:16.402Z,29.57
2023-04-08T15:59:47.994Z,29.56
2023-04-08T16:02:18.595Z,29.53
2023-04-08T16:04:49.240Z,29.51
2023-04-08T16:07:19.768Z,29.50
2023-04-08T16:09:50.945Z,29.47
2023-04-08T16:12:21.445Z,29.45
2023-04-08T16:14:53.685Z,29.43
2023-04-08T16:17:24.168Z,29.41
2023-04-08T16:19:54.499Z,29.38
2023-04-08T16:22:24.696Z,29.37
2023-04-08T16:24:55.056Z,29.35
2023-04-08T16:27:25.115Z,29.32
2023-04-08T16:29:57.928Z,29.30
2023-04-08T16:32:28.390Z,29.29
2023-04-08T16:34:59.063Z,29.26
2023-04-08T16:37:29.586Z,29.24
2023-04-08T16:40:00.263Z,29.23
2023-04-08T16:42:30.289Z,29.21
2023-04-08T16:45:02.971Z,29.19
2023-04-08T16:47:33.407Z,29.16
2023-04-08T16:50:04.026Z,29.15
2023-04-08T16:52:34.615Z,29.13
2023-04-08T16:55:04.865Z,29.10
2023-04-08T16:57:35.377Z,29.07
2023-04-08T17:00:08.847Z,29.07
2023-04-08T17:02:39.346Z,29.05
2023-04-08T17:05:10.814Z,29.02
2023-04-08T17:07:41.305Z,29.00
2023-04-08T17:10:12.598Z,28.98
2023-04-08T17:12:43.617Z,28.97
2023-04-08T17:15:16.807Z,28.95
2023-04-08T17:17:48.315Z,28.94
2023-04-08T17:20:18.971Z,28.91
2023-04-08T17:22:49.394Z,28.91
2023-04-08T17:25:20.249Z,28.88
2023-04-08T17:27:50.752Z,28.86
2023-04-08T17:30:22.973Z,28.85
2023-04-08T17:32:53.538Z,28.84
2023-04-08T17:35:24.071Z,28.82
2023-04-08T17:37:53.871Z,28.81
2023-04-08T17:40:24.132Z,28.79
2023-04-08T17:42:54.846Z,28.78
2023-04-08T17:45:27.390Z,28.76
2023-04-08T17:47:59.501Z,28.75
2023-04-08T17:50:30.148Z,28.73
2023-04-08T17:53:01.118Z,28.71
2023-04-08T17:55:31.789Z,28.71
2023-04-08T17:58:02.679Z,28.70
2023-04-08T18:00:35.236Z,28.67
2023-04-08T18:03:06.364Z,28.67
2023-04-08T18:05:36.972Z,28.66
2023-04-08T18:08:07.727Z,28.66
2023-04-08T18:10:39.407Z,28.66
2023-04-08T18:13:11.695Z,28.65
2023-04-08T18:15:43.995Z,28.65
2023-04-08T18:18:18.847Z,28.65
2023-04-08T18:20:49.398Z,28.63
2023-04-08T18:23:19.900Z,28.64
2023-04-08T18:25:51.048Z,28.63
2023-04-08T18:28:22.900Z,28.63
2023-04-08T18:30:55.572Z,28.63
2023-04-08T18:33:26.220Z,28.62
2023-04-08T18:35:58.915Z,28.62
2023-04-08T18:38:29.628Z,28.62
2023-04-08T18:41:00.051Z,28.60
2023-04-08T18:43:30.691Z,28.60
2023-04-08T18:46:03.315Z,28.59
2023-04-08T18:48:33.623Z,28.59
2023-04-08T18:51:04.294Z,28.58
2023-04-08T18:53:34.373Z,28.59
2023-04-08T18:56:05.197Z,28.57
2023-04-08T18:58:35.179Z,28.57
2023-04-08T19:01:09.866Z,28.58
2023-04-08T19:03:41.041Z,28.57
2023-04-08T19:06:13.487Z,28.56
2023-04-08T19:08:43.683Z,28.55
2023-04-08T19:11:14.186Z,28.55
2023-04-08T19:13:44.986Z,28.54
2023-04-08T19:16:17.505Z,28.55
2023-04-08T19:18:48.018Z,28.52
2023-04-08T19:21:18.613Z,28.52
2023-04-08T19:23:49.644Z,28.52
2023-04-08T19:26:19.786Z,28.52
2023-04-08T19:28:50.280Z,28.51
2023-04-08T19:31:23.054Z,28.51
2023-04-08T19:33:53.604Z,28.50
2023-04-08T19:36:24.107Z,28.49
2023-04-08T19:38:54.600Z,28.48
2023-04-08T19:41:25.266Z,28.48
2023-04-08T19:43:55.779Z,28.47
2023-04-08T19:46:28.321Z,28.46
2023-04-08T19:48:59.402Z,28.46
2023-04-08T19:51:31.478Z,28.45
2023-04-08T19:54:01.658Z,28.43
2023-04-08T19:56:34.497Z,28.42
2023-04-08T19:59:05.007Z,28.42
2023-04-08T20:01:39.623Z,28.40
2023-04-08T20:04:10.421Z,28.39
2023-04-08T20:06:40.984Z,28.37
2023-04-08T20:09:11.495Z,28.36
2023-04-08T20:11:42.536Z,28.36
2023-04-08T20:14:13.017Z,28.34
2023-04-08T20:16:45.198Z,28.33
2023-04-08T20:19:15.243Z,28.31
2023-04-08T20:21:45.304Z,28.30
2023-04-08T20:24:15.258Z,28.29
2023-04-08T20:26:45.807Z,28.28
2023-04-08T20:29:16.662Z,28.27
2023-04-08T20:31:50.171Z,28.26
2023-04-08T20:34:20.656Z,28.26
2023-04-08T20:36:51.354Z,28.25
2023-04-08T20:39:22.956Z,28.24
2023-04-08T20:41:53.620Z,28.23
2023-04-08T20:44:24.247Z,28.22
2023-04-08T20:46:57.110Z,28.21
2023-04-08T20:49:27.569Z,28.21
2023-04-08T20:51:59.368Z,28.19
2023-04-08T20:54:31.626Z,28.18
2023-04-08T20:57:02.219Z,28.17
2023-04-08T20:59:33.600Z,28.18
2023-04-08T21:02:06.903Z,28.18
2023-04-08T21:04:38.003Z,28.17
2023-04-08T21:07:08.478Z,28.17
2023-04-08T21:09:39.298Z,28.17
2023-04-08T21:12:09.828Z,28.18
2023-04-08T21:14:39.865Z,28.18
2023-04-08T21:17:12.425Z,28.19
2023-04-08T21:19:42.993Z,28.18
2023-04-08T21:22:13.546Z,28.18
2023-04-08T21:24:44.041Z,28.17
2023-04-08T21:27:14.594Z,28.17
2023-04-08T21:29:44.530Z,28.18
2023-04-08T21:32:17.202Z,28.16
2023-04-08T21:34:48.394Z,28.18
2023-04-08T21:37:18.981Z,28.17
2023-04-08T21:39:49.541Z,28.15
2023-04-08T21:42:23.608Z,28.15
2023-04-08T21:44:54.459Z,28.13
2023-04-08T21:47:26.390Z,28.14
2023-04-08T21:49:56.998Z,28.12
2023-04-08T21:52:27.244Z,28.11
2023-04-08T21:54:57.749Z,28.12
2023-04-08T21:57:27.512Z,28.11
2023-04-08T21:59:57.672Z,28.11
2023-04-08T22:02:30.317Z,28.11
2023-04-08T22:05:01.151Z,28.11
2023-04-08T22:07:31.438Z,28.10
2023-04-08T22:10:02.146Z,28.09
2023-04-08T22:12:33.043Z,28.08
2023-04-08T22:15:02.862Z,28.06
2023-04-08T22:17:34.918Z,28.02
2023-04-08T22:20:05.737Z,28.02
2023-04-08T22:22:36.320Z,28.00
2023-04-08T22:25:07.225Z,27.99
2023-04-08T22:27:37.112Z,27.96
2023-04-08T22:30:08.974Z,27.95
2023-04-08T22:32:41.720Z,27.91
2023-04-08T22:35:13.077Z,27.89
2023-04-08T22:37:43.359Z,27.87
2023-04-08T22:40:14.419Z,27.87
2023-04-08T22:42:44.888Z,27.87
2023-04-08T22:45:15.380Z,27.87
2023-04-08T22:47:47.077Z,27.87
2023-04-08T22:50:17.803Z,27.86
2023-04-08T22:52:48.408Z,27.85
2023-04-08T22:55:19.291Z,27.85
2023-04-08T22:57:49.820Z,27.85
2023-04-08T23:00:20.525Z,27.86
2023-04-08T23:02:52.962Z,27.85
2023-04-08T23:05:23.617Z,27.86
2023-04-08T23:07:54.420Z,27.85
2023-04-08T23:10:24.897Z,27.85
2023-04-08T23:12:55.396Z,27.83
2023-04-08T23:15:25.877Z,27.82
2023-04-08T23:17:58.060Z,27.79
2023-04-08T23:20:28.609Z,27.78
2023-04-08T23:22:59.072Z,27.76
2023-04-08T23:25:29.600Z,27.75
2023-04-08T23:27:59.615Z,27.76
2023-04-08T23:30:30.178Z,27.76
2023-04-08T23:33:02.241Z,27.76
2023-04-08T23:35:32.646Z,27.75
2023-04-08T23:38:03.362Z,27.75
2023-04-08T23:40:33.962Z,27.75
2023-04-08T23:43:04.546Z,27.75
2023-04-08T23:45:35.201Z,27.75
2023-04-08T23:48:10.021Z,27.75
2023-04-08T23:50:40.249Z,27.76
2023-04-08T23:53:10.196Z,27.75
2023-04-08T23:55:40.769Z,27.75
2023-04-08T23:58:11.413Z,27.76
